createdAt,value
2019-01-12T00:01:41.668Z,3.98
2019-01-12T00:07:36.644Z,4.53
2019-01-12T00:13:31.612Z,4.32
2019-01-12T00:19:26.634Z,4.06
2019-01-12T00:25:21.617Z,4.16
2019-01-12T00:31:16.621Z,3.81
2019-01-12T00:37:11.676Z,4.11
2019-01-12T00:43:06.617Z,3.92
2019-01-12T00:49:01.628Z,4.05
2019-01-12T00:54:56.651Z,4.62
2019-01-12T01:00:51.651Z,5.37
2019-01-12T01:06:46.648Z,4.14
2019-01-12T01:12:41.630Z,4.14
2019-01-12T01:18:36.643Z,5.1
2019-01-12T01:24:31.638Z,5.04
2019-01-12T01:30:26.650Z,5.96
2019-01-12T01:36:21.654Z,4.75
2019-01-12T01:42:16.631Z,3.98
2019-01-12T01:48:11.661Z,4.62
2019-01-12T01:54:06.648Z,5.23
2019-01-12T02:00:01.676Z,4.69
2019-01-12T02:05:56.637Z,4.58
2019-01-12T02:11:51.665Z,6.15
2019-01-12T02:17:46.670Z,4.99
2019-01-12T02:23:41.652Z,5.58
2019-01-12T02:29:36.653Z,5.6
2019-01-12T02:35:31.671Z,5.9
2019-01-12T02:41:26.675Z,5.47
2019-01-12T02:47:21.664Z,6.33
2019-01-12T02:53:16.674Z,5.6
2019-01-12T02:59:11.691Z,5.29
2019-01-12T03:05:06.657Z,5.82
2019-01-12T03:11:01.710Z,5.03
2019-01-12T03:16:56.665Z,5.02
2019-01-12T03:22:51.688Z,4.94
2019-01-12T03:28:46.699Z,5.38
2019-01-12T03:34:41.668Z,3.92
2019-01-12T03:40:36.725Z,3.53
2019-01-12T03:46:31.677Z,4.29
2019-01-12T03:52:26.680Z,3.7
2019-01-12T03:58:21.663Z,3.62
2019-01-12T04:04:16.698Z,3.59
2019-01-12T04:10:11.695Z,4.49
2019-01-12T04:16:06.703Z,4.64
2019-01-12T04:22:01.682Z,3.94
2019-01-12T04:27:56.718Z,4.52
2019-01-12T04:33:51.708Z,3.95
2019-01-12T04:39:46.689Z,4.23
2019-01-12T04:45:41.776Z,3.73
2019-01-12T04:51:36.760Z,3.95
2019-01-12T04:57:31.717Z,4.03
2019-01-12T05:03:26.731Z,3.72
2019-01-12T05:09:21.710Z,3.36
2019-01-12T05:15:16.779Z,3.76
2019-01-12T05:21:11.744Z,3.47
2019-01-12T05:27:06.758Z,3.3
2019-01-12T05:33:01.712Z,4
2019-01-12T05:38:56.714Z,4.45
2019-01-12T05:44:51.741Z,4.71
2019-01-12T05:50:46.723Z,4.96
2019-01-12T05:56:41.754Z,4.63
2019-01-12T06:02:36.717Z,5.3
2019-01-12T06:08:31.726Z,6.49
2019-01-12T06:14:26.820Z,5.79
2019-01-12T06:20:21.774Z,5.84
2019-01-12T06:26:16.779Z,5.32
2019-01-12T06:32:11.742Z,7.4
2019-01-12T06:38:06.731Z,6.1
2019-01-12T06:44:01.807Z,5.5
2019-01-12T06:49:56.757Z,5.8
2019-01-12T06:55:51.766Z,6.4
2019-01-12T07:01:46.745Z,4.98
2019-01-12T07:07:41.752Z,5.64
2019-01-12T07:13:36.772Z,4.5
2019-01-12T07:19:31.776Z,4.67
2019-01-12T07:25:26.741Z,5.46
2019-01-12T07:31:21.752Z,4.83
2019-01-12T07:37:16.754Z,4.66
2019-01-12T07:43:11.765Z,5.22
2019-01-12T07:49:06.761Z,5.92
2019-01-12T07:55:01.816Z,6.45
2019-01-12T08:00:56.798Z,8.47
2019-01-12T08:06:51.755Z,10.47
2019-01-12T08:12:46.769Z,9.6
2019-01-12T08:18:41.767Z,12.18
2019-01-12T08:24:36.804Z,10.51
2019-01-12T08:30:31.794Z,11.63
2019-01-12T08:36:26.792Z,11.62
2019-01-12T08:42:21.760Z,14.09
2019-01-12T08:48:16.785Z,18.25
2019-01-12T08:54:11.800Z,17
2019-01-12T09:00:06.799Z,16.06
2019-01-12T09:06:01.793Z,18.15
2019-01-12T09:11:56.797Z,17.03
2019-01-12T09:17:51.796Z,20.23
2019-01-12T09:23:46.781Z,21.63
2019-01-12T09:29:41.778Z,20.26
2019-01-12T09:35:36.818Z,22.46
2019-01-12T09:41:31.805Z,20.85
2019-01-12T09:47:26.806Z,19.65
2019-01-12T09:53:21.830Z,22.6
2019-01-12T09:59:16.817Z,18.57
2019-01-12T10:05:11.814Z,19.39
2019-01-12T10:11:06.857Z,20.12
2019-01-12T10:17:01.906Z,17.85
2019-01-12T10:22:56.884Z,19.24
2019-01-12T10:28:51.858Z,18.47
2019-01-12T10:34:46.813Z,20.69
2019-01-12T10:40:41.832Z,20.71
2019-01-12T10:46:36.852Z,17.84
2019-01-12T10:52:31.826Z,13.39
2019-01-12T10:58:26.825Z,16.23
2019-01-12T11:04:21.875Z,17.29
2019-01-12T11:10:16.860Z,16.11
2019-01-12T11:16:11.841Z,16.21
2019-01-12T11:22:06.857Z,17.49
2019-01-12T11:28:01.869Z,17.27
2019-01-12T11:33:56.868Z,15.98
2019-01-12T11:39:51.860Z,14.88
2019-01-12T11:45:46.884Z,17.57
2019-01-12T11:51:41.857Z,14.03
2019-01-12T11:57:36.871Z,10.32
2019-01-12T12:03:31.880Z,13.86
2019-01-12T12:09:26.872Z,12.41
2019-01-12T12:15:21.862Z,10.56
2019-01-12T12:21:16.890Z,10.36
2019-01-12T12:27:11.887Z,9.51
2019-01-12T12:33:06.946Z,11.02
2019-01-12T12:39:01.912Z,9.24
2019-01-12T12:44:56.895Z,9.28
2019-01-12T12:50:51.887Z,9.07
2019-01-12T12:56:46.906Z,7.07
2019-01-12T13:02:41.920Z,7.8
2019-01-12T13:08:36.900Z,9.84
2019-01-12T13:14:31.899Z,10.68
2019-01-12T13:20:26.907Z,10.86
2019-01-12T13:26:21.909Z,9.5
2019-01-12T13:32:16.911Z,6.77
2019-01-12T13:38:11.940Z,9.27
2019-01-12T13:44:06.939Z,9.26
2019-01-12T13:50:01.927Z,24.88
2019-01-12T13:55:56.980Z,9.62
2019-01-12T14:01:51.961Z,11.84
2019-01-12T14:07:46.995Z,10.04
2019-01-12T14:13:42.441Z,10.48
2019-01-12T14:19:36.937Z,11.71
2019-01-12T14:25:31.935Z,10.17
2019-01-12T14:31:26.957Z,11
2019-01-12T14:37:21.964Z,11.49
2019-01-12T14:43:16.951Z,12.45
2019-01-12T14:49:11.983Z,12.88
2019-01-12T14:55:06.985Z,13.39
2019-01-12T15:01:01.965Z,11.6
2019-01-12T15:06:56.960Z,11.07
2019-01-12T15:12:51.972Z,11.91
2019-01-12T15:18:46.990Z,10.33
2019-01-12T15:24:41.966Z,11.88
2019-01-12T15:30:37.028Z,13.2
2019-01-12T15:36:31.982Z,17.13
2019-01-12T15:42:26.992Z,49.84
2019-01-12T15:48:21.994Z,50.91
2019-01-12T15:54:16.988Z,28.26
2019-01-12T16:00:12.043Z,35.96
2019-01-12T16:06:07.001Z,19.8
2019-01-12T16:12:02.043Z,14.53
2019-01-12T16:17:57.027Z,15.69
2019-01-12T16:23:52.021Z,13.63
2019-01-12T16:29:47.014Z,19.71
2019-01-12T16:35:42.038Z,13.82
2019-01-12T16:41:37.028Z,14.28
2019-01-12T16:47:32.050Z,12.11
2019-01-12T16:53:27.032Z,11.83
2019-01-12T16:59:22.094Z,11.32
2019-01-12T17:05:17.038Z,10.5
2019-01-12T17:11:12.036Z,11.44
2019-01-12T17:17:07.033Z,10.85
2019-01-12T17:23:02.078Z,11.24
2019-01-12T17:28:57.044Z,10.35
2019-01-12T17:34:52.063Z,30.19
2019-01-12T17:40:47.045Z,17.31
2019-01-12T17:46:42.064Z,28.34
2019-01-12T17:52:37.138Z,12.52
2019-01-12T17:58:32.069Z,9.85
2019-01-12T18:04:27.055Z,15.38
2019-01-12T18:10:22.070Z,9.85
2019-01-12T18:16:17.076Z,10.19
2019-01-12T18:22:12.080Z,10.53
2019-01-12T18:28:07.063Z,12.74
2019-01-12T18:34:02.079Z,12.83
2019-01-12T18:39:57.073Z,11.19
2019-01-12T18:45:52.094Z,9.04
2019-01-12T18:51:47.073Z,7.44
2019-01-12T18:57:42.133Z,12.55
2019-01-12T19:03:37.082Z,10.88
2019-01-12T19:09:32.126Z,17.27
2019-01-12T19:15:27.092Z,14.62
2019-01-12T19:21:22.112Z,16.3
2019-01-12T19:27:17.113Z,13.33
2019-01-12T19:33:12.090Z,10.54
2019-01-12T19:39:07.101Z,10.6
2019-01-12T19:45:02.106Z,9.62
2019-01-12T19:50:57.115Z,11.13
2019-01-12T19:56:52.128Z,9.7
2019-01-12T20:02:47.137Z,13.95
2019-01-12T20:08:42.131Z,13.12
2019-01-12T20:14:37.116Z,16.7
2019-01-12T20:20:32.162Z,14.84
2019-01-12T20:26:27.126Z,17.74
2019-01-12T20:32:22.145Z,13.91
2019-01-12T20:44:12.149Z,17.97
2019-01-12T20:44:12.182Z,16.43
2019-01-12T20:50:07.160Z,15.75
2019-01-12T20:56:02.141Z,17.27
2019-01-12T21:01:57.163Z,18.99
2019-01-12T21:07:52.156Z,22.18
2019-01-12T21:13:48.304Z,21.69
2019-01-12T21:19:47.923Z,18.24
2019-01-12T21:25:37.190Z,16.32
2019-01-12T21:31:32.185Z,17.51
2019-01-12T21:37:27.168Z,14.17
2019-01-12T21:43:22.161Z,14.05
2019-01-12T21:49:17.165Z,16.54
2019-01-12T21:55:12.165Z,14.86
2019-01-12T22:01:07.271Z,13.8
2019-01-12T22:07:02.186Z,15.6
2019-01-12T22:12:57.167Z,14.29
2019-01-12T22:18:52.168Z,14.24
2019-01-12T22:24:47.159Z,16.35
2019-01-12T22:30:42.176Z,15.92
2019-01-12T22:36:37.189Z,14.84
2019-01-12T22:42:32.182Z,13.24
2019-01-12T22:48:27.187Z,13.31
2019-01-12T22:54:22.214Z,15.1
2019-01-12T23:00:17.244Z,14.57
2019-01-12T23:06:12.209Z,18.34
2019-01-12T23:12:07.191Z,19.19
2019-01-12T23:18:02.230Z,16.55
2019-01-12T23:23:57.199Z,23.73
2019-01-12T23:29:52.201Z,18.63
2019-01-12T23:35:47.205Z,18.14
2019-01-12T23:41:42.237Z,21.69
2019-01-12T23:47:37.258Z,21.71
2019-01-12T23:53:32.229Z,20.89
2019-01-12T23:59:27.216Z,21.43
